Argos, Indiana
Current Conditions -  °F | °C
As of 12:35 PM on Wednesday 26 Nov 2014 (Local Time) from KRCR Reporting Station
Overcast Overcast  
Wind Chill: -4°   Ceiling: 1600
Heat Index: -1°   Visibility: 10mi
Dew Point: -5°   Wind: 5mph
Humidity: 75%   Direction: 170°S
Pressure: 30.13"   Gusts: NA
Location:  41.23°N, 86.24°W
Report Text: KRCR 261735Z AUTO 17004KT 10SM OVC016 M01/M05 A3013 RMK AO2
Loading
Personal Weather Stations






























Interactive Weather Map New forecast layout! Learn more

10-Day Weather Forecast

Advertisements
Track Severe Weather on mobile